Terminal Aerodrome Forecast
Issued by NWS Grand Forks, ND

Home | Current Version | Previous Version | Graphics & Text | Print | Product List | Glossary On
Versions: 1 2 3 4 5 6 7 8 9 10 11 12 13 14 15 16 17 18 19 20 21 22 23
000
FTUS43 KFGF 272000 AAA
TAFGFK
TAF AMD
KGFK 272008Z 2720/2818 17015KT P6SM OVC004
      TEMPO 2720/2722 OVC007
     FM272200 16014KT P6SM OVC007
     FM280600 15010KT 5SM BR OVC006=

USA.gov is the U.S. government's official web portal to all federal, state and local government web resources and services.